Ana Sayfa
METAR-TAF:

METAR-TAF

Havaalanları :

New York, New York, Amerika Birleşik Devletleri

Enlem: 40-42-04N, Boylam: 074-00-32W, yükseklik: 2 m

Güncel hava durumu gözlemi

Rapor saat 22:56 UTC de 49 dakika önce yapıldı.
Rüzgar değişken yönden 3 kt
Sıcaklık 3°C
Nem 52%
Basınç 1012 hPa
5000 ft yükseklikte çok bulutlu

METAR: KJRB 192256Z AUTO VRB03KT OVC050 03/M06 A2988 RMK AO2 SLP119 T00331061 PWINO

Saat: 18:45 (23:45 UTC)


TAF: eksik

4.000'den fazla havaalanı için hava durumu gözlemleri ve tahminleri (METAR ve TAF raporları).

Kullanılabilir istasyonlar harita üzerinde sarı ve kırmızı noktalarla gösterilir.

İstasyonun adını görmek için fareyi noktanın üzerinde gezdirin.

Sonrasında hava gözlem ve tahminlerini görmek için tıklayın.

Haritayı değiştirmek için: yaklaştırmak için siyah artı işaretli yeşil düğmeye ve uzaklaştırmak için de eksi işaretli düğmeye hızla tıklayın; bitişik haritalar için yeşil okları kullanın.


METAR-TAF: